createdAt,value
2018-08-12T00:01:01.984Z,17.73
2018-08-12T00:03:30.225Z,17.75
2018-08-12T00:05:58.416Z,17.79
2018-08-12T00:08:26.700Z,17.81
2018-08-12T00:10:55.212Z,17.78
2018-08-12T00:13:23.428Z,17.67
2018-08-12T00:15:51.720Z,17.51
2018-08-12T00:18:20.175Z,17.58
2018-08-12T00:20:49.417Z,17.72
2018-08-12T00:23:17.570Z,17.81
2018-08-12T00:25:45.750Z,17.64
2018-08-12T00:28:13.950Z,17.66
2018-08-12T00:30:42.113Z,17.70
2018-08-12T00:33:11.056Z,17.64
2018-08-12T00:35:39.257Z,17.64
2018-08-12T00:38:07.474Z,17.62
2018-08-12T00:40:35.691Z,17.50
2018-08-12T00:43:04.525Z,17.43
2018-08-12T00:45:32.686Z,17.37
2018-08-12T00:48:00.952Z,17.29
2018-08-12T00:50:29.145Z,17.22
2018-08-12T00:52:57.425Z,17.23
2018-08-12T00:55:25.665Z,17.21
2018-08-12T00:57:53.889Z,17.21
2018-08-12T01:00:22.732Z,17.20
2018-08-12T01:02:50.987Z,17.35
2018-08-12T01:05:20.417Z,17.27
2018-08-12T01:07:49.531Z,17.13
2018-08-12T01:10:18.546Z,17.04
2018-08-12T01:12:46.971Z,17.00
2018-08-12T01:15:17.213Z,16.96
2018-08-12T01:17:45.666Z,16.90
2018-08-12T01:20:18.461Z,16.90
2018-08-12T01:22:46.681Z,16.97
2018-08-12T01:25:14.991Z,17.06
2018-08-12T01:27:43.317Z,17.03
2018-08-12T01:30:15.316Z,17.02
2018-08-12T01:32:44.281Z,16.98
2018-08-12T01:35:13.339Z,16.98
2018-08-12T01:37:42.627Z,16.93
2018-08-12T01:40:12.894Z,16.92
2018-08-12T01:42:41.845Z,16.86
2018-08-12T01:45:13.597Z,16.81
2018-08-12T01:47:41.778Z,16.80
2018-08-12T01:50:11.917Z,16.98
2018-08-12T01:52:40.155Z,16.96
2018-08-12T01:55:08.436Z,16.94
2018-08-12T01:57:36.641Z,16.87
2018-08-12T02:00:08.448Z,16.87
2018-08-12T02:02:36.825Z,16.89
2018-08-12T02:05:06.115Z,16.90
2018-08-12T02:07:34.290Z,16.84
2018-08-12T02:10:02.642Z,16.82
2018-08-12T02:12:30.819Z,16.81
2018-08-12T02:14:58.942Z,16.88
2018-08-12T02:17:27.082Z,16.78
2018-08-12T02:19:55.334Z,16.75
2018-08-12T02:22:23.472Z,16.74
2018-08-12T02:24:51.696Z,16.73
2018-08-12T02:27:20.121Z,16.63
2018-08-12T02:29:48.294Z,16.66
2018-08-12T02:32:16.453Z,16.67
2018-08-12T02:34:44.650Z,16.65
2018-08-12T02:37:13.042Z,16.67
2018-08-12T02:39:41.267Z,16.71
2018-08-12T02:42:10.300Z,16.59
2018-08-12T02:44:38.776Z,16.68
2018-08-12T02:47:06.995Z,16.62
2018-08-12T02:49:35.205Z,16.59
2018-08-12T02:52:03.523Z,16.48
2018-08-12T02:54:31.780Z,16.44
2018-08-12T02:57:00.973Z,16.44
2018-08-12T02:59:29.101Z,16.29
2018-08-12T03:01:57.867Z,16.36
2018-08-12T03:04:26.081Z,16.28
2018-08-12T03:06:54.337Z,16.23
2018-08-12T03:09:22.426Z,16.14
2018-08-12T03:11:50.559Z,16.12
2018-08-12T03:14:18.715Z,16.11
2018-08-12T03:16:46.951Z,16.28
2018-08-12T03:19:15.206Z,16.30
2018-08-12T03:21:43.396Z,16.27
2018-08-12T03:24:11.660Z,16.26
2018-08-12T03:26:39.841Z,16.28
2018-08-12T03:29:08.019Z,16.15
2018-08-12T03:31:36.428Z,16.06
2018-08-12T03:34:04.749Z,15.98
2018-08-12T03:36:32.948Z,15.94
2018-08-12T03:39:01.783Z,15.91
2018-08-12T03:41:29.989Z,16.07
2018-08-12T03:43:58.220Z,16.19
2018-08-12T03:46:26.372Z,16.16
2018-08-12T03:48:56.176Z,16.13
2018-08-12T03:51:24.282Z,16.04
2018-08-12T03:53:52.496Z,15.86
2018-08-12T03:56:20.718Z,15.77
2018-08-12T03:58:48.999Z,15.70
2018-08-12T04:01:17.100Z,15.83
2018-08-12T04:03:45.337Z,15.75
2018-08-12T04:06:13.446Z,15.77
2018-08-12T04:08:42.464Z,15.99
2018-08-12T04:11:11.394Z,15.98
2018-08-12T04:13:39.705Z,16.04
2018-08-12T04:16:07.902Z,16.13
2018-08-12T04:18:36.239Z,16.15
2018-08-12T04:21:04.411Z,16.07
2018-08-12T04:23:32.541Z,16.01
2018-08-12T04:26:00.708Z,16.00
2018-08-12T04:28:28.925Z,15.85
2018-08-12T04:30:57.043Z,15.83
2018-08-12T04:33:25.227Z,16.03
2018-08-12T04:35:53.461Z,16.10
2018-08-12T04:38:21.905Z,16.10
2018-08-12T04:40:50.083Z,16.14
2018-08-12T04:43:18.281Z,16.15
2018-08-12T04:45:46.533Z,16.21
2018-08-12T04:48:14.759Z,16.30
2018-08-12T04:50:42.981Z,16.28
2018-08-12T04:53:11.521Z,16.37
2018-08-12T04:55:39.846Z,16.44
2018-08-12T04:58:08.121Z,16.55
2018-08-12T05:00:36.647Z,16.53
2018-08-12T05:03:04.860Z,16.63
2018-08-12T05:05:33.115Z,16.69
2018-08-12T05:08:01.889Z,16.84
2018-08-12T05:10:30.160Z,16.80
2018-08-12T05:12:59.365Z,16.91
2018-08-12T05:15:27.583Z,16.99
2018-08-12T05:17:55.769Z,17.03
2018-08-12T05:20:23.969Z,17.11
2018-08-12T05:22:52.184Z,17.05
2018-08-12T05:25:20.394Z,17.16
2018-08-12T05:27:49.272Z,17.23
2018-08-12T05:30:17.673Z,17.34
2018-08-12T05:32:45.815Z,17.44
2018-08-12T05:35:14.092Z,17.69
2018-08-12T05:37:43.238Z,18.16
2018-08-12T05:40:12.252Z,18.95
2018-08-12T05:42:40.629Z,19.68
2018-08-12T05:45:10.082Z,20.52
2018-08-12T05:47:39.337Z,20.89
2018-08-12T05:50:15.737Z,20.92
2018-08-12T05:52:45.366Z,21.41
2018-08-12T05:55:14.336Z,22.11
2018-08-12T05:57:42.922Z,23.13
2018-08-12T06:00:13.814Z,23.87
2018-08-12T06:02:43.472Z,24.35
2018-08-12T06:05:14.660Z,24.96
2018-08-12T06:07:43.952Z,25.65
2018-08-12T06:10:13.956Z,25.62
2018-08-12T06:12:42.179Z,26.48
2018-08-12T06:15:13.724Z,27.43
2018-08-12T06:17:43.344Z,28.33
2018-08-12T06:20:15.734Z,28.92
2018-08-12T06:22:44.053Z,29.45
2018-08-12T06:25:12.253Z,28.92
2018-08-12T06:27:42.234Z,29.57
2018-08-12T06:30:13.802Z,30.56
2018-08-12T06:32:42.861Z,30.57
2018-08-12T06:35:11.895Z,30.45
2018-08-12T06:37:41.187Z,30.72
2018-08-12T06:40:12.814Z,31.62
2018-08-12T06:42:44.140Z,31.90
2018-08-12T06:45:16.827Z,32.41
2018-08-12T06:47:46.155Z,33.25
2018-08-12T06:50:14.488Z,33.35
2018-08-12T06:52:42.818Z,33.18
2018-08-12T06:55:12.261Z,33.73
2018-08-12T06:57:41.429Z,34.18
2018-08-12T07:00:16.792Z,34.68
2018-08-12T07:02:45.074Z,34.96
2018-08-12T07:05:14.970Z,35.63
2018-08-12T07:07:43.477Z,34.63
2018-08-12T07:10:13.602Z,35.58
2018-08-12T07:12:41.904Z,35.21
2018-08-12T07:15:14.901Z,35.91
2018-08-12T07:17:45.094Z,37.46
2018-08-12T07:20:13.880Z,38.80
2018-08-12T07:22:43.255Z,39.57
2018-08-12T07:25:12.934Z,39.95
2018-08-12T07:27:42.060Z,40.66
2018-08-12T07:30:13.404Z,39.75
2018-08-12T07:32:41.775Z,39.41
2018-08-12T07:35:10.932Z,38.68
2018-08-12T07:37:39.826Z,38.97
2018-08-12T07:40:18.644Z,38.91
2018-08-12T07:42:47.868Z,37.78
2018-08-12T07:45:16.374Z,38.53
2018-08-12T07:47:44.750Z,38.01
2018-08-12T07:50:13.052Z,38.91
2018-08-12T07:52:42.711Z,39.13
2018-08-12T07:55:12.045Z,39.82
2018-08-12T07:57:41.104Z,39.25
2018-08-12T08:00:14.050Z,39.42
2018-08-12T08:02:42.462Z,39.44
2018-08-12T08:05:10.689Z,40.40
2018-08-12T08:07:39.018Z,40.43
2018-08-12T08:10:10.285Z,39.71
2018-08-12T08:12:39.095Z,39.06
2018-08-12T08:15:11.305Z,39.78
2018-08-12T08:17:40.213Z,38.87
2018-08-12T08:20:10.485Z,38.61
2018-08-12T08:22:38.733Z,38.76
2018-08-12T08:25:07.903Z,39.38
2018-08-12T08:27:36.504Z,40.42
2018-08-12T08:30:07.587Z,42.35
2018-08-12T08:32:36.872Z,43.11
2018-08-12T08:35:05.335Z,43.54
2018-08-12T08:37:33.737Z,40.54
2018-08-12T08:40:02.133Z,42.18
2018-08-12T08:42:30.407Z,42.84
2018-08-12T08:44:58.681Z,44.41
2018-08-12T08:47:27.037Z,44.29
2018-08-12T08:49:55.468Z,45.35
2018-08-12T08:52:23.705Z,45.77
2018-08-12T08:54:52.010Z,47.14
2018-08-12T08:57:20.249Z,46.85
2018-08-12T08:59:48.475Z,46.39
2018-08-12T09:02:16.655Z,47.89
2018-08-12T09:04:44.869Z,48.92
2018-08-12T09:07:13.554Z,47.96
2018-08-12T09:09:41.799Z,46.41
2018-08-12T09:12:09.956Z,46.55
2018-08-12T09:14:39.217Z,45.21
2018-08-12T09:17:07.498Z,47.67
2018-08-12T09:19:36.386Z,46.61
2018-08-12T09:22:04.667Z,48.25
2018-08-12T09:24:33.013Z,48.62
2018-08-12T09:27:01.320Z,48.65
2018-08-12T09:29:29.626Z,48.56
2018-08-12T09:31:57.880Z,46.21
2018-08-12T09:34:26.013Z,43.05
2018-08-12T09:36:54.294Z,45.48
2018-08-12T09:39:22.702Z,47.82
2018-08-12T09:41:50.924Z,49.22
2018-08-12T09:44:19.060Z,50.05
2018-08-12T09:46:47.352Z,50.34
2018-08-12T09:49:15.622Z,50.96
2018-08-12T09:51:44.014Z,50.80
2018-08-12T09:54:12.107Z,52.50
2018-08-12T09:56:40.298Z,52.46
2018-08-12T09:59:08.530Z,50.46
2018-08-12T10:01:36.763Z,50.17
2018-08-12T10:04:05.754Z,48.58
2018-08-12T10:06:34.060Z,44.47
2018-08-12T10:09:02.344Z,45.41
2018-08-12T10:11:30.625Z,45.13
2018-08-12T10:13:58.911Z,44.81
2018-08-12T10:16:27.166Z,46.51
2018-08-12T10:18:55.450Z,49.84
2018-08-12T10:21:23.770Z,50.74
2018-08-12T10:23:51.949Z,50.87
2018-08-12T10:26:20.302Z,50.66
2018-08-12T10:28:48.657Z,51.23
2018-08-12T10:31:16.863Z,51.20
2018-08-12T10:33:45.096Z,48.57
2018-08-12T10:36:13.333Z,47.71
2018-08-12T10:38:41.612Z,45.76
2018-08-12T10:41:09.834Z,46.01
2018-08-12T10:43:38.182Z,45.93
2018-08-12T10:46:06.471Z,46.78
2018-08-12T10:48:34.681Z,49.60
2018-08-12T10:51:02.857Z,52.01
2018-08-12T10:53:31.122Z,52.56
2018-08-12T10:55:59.533Z,53.77
2018-08-12T10:58:28.274Z,55.15
2018-08-12T11:00:56.671Z,56.60
2018-08-12T11:03:24.910Z,55.99
2018-08-12T11:05:53.351Z,55.74
2018-08-12T11:08:21.717Z,55.30
2018-08-12T11:10:50.128Z,54.31
2018-08-12T11:13:18.368Z,54.77
2018-08-12T11:15:46.518Z,55.34
2018-08-12T11:18:14.682Z,55.74
2018-08-12T11:20:42.854Z,55.85
2018-08-12T11:23:10.972Z,56.87
2018-08-12T11:25:39.217Z,54.72
2018-08-12T11:28:07.474Z,53.01
2018-08-12T11:30:35.690Z,54.29
2018-08-12T11:33:04.091Z,53.57
2018-08-12T11:35:32.320Z,54.31
2018-08-12T11:38:00.667Z,54.13
2018-08-12T11:40:28.890Z,55.50
2018-08-12T11:42:57.123Z,55.88
2018-08-12T11:45:25.228Z,56.39
2018-08-12T11:47:55.043Z,57.41
2018-08-12T11:50:23.476Z,57.91
2018-08-12T11:52:51.744Z,56.60
2018-08-12T11:55:20.110Z,56.58
2018-08-12T11:57:48.492Z,54.69
2018-08-12T12:00:18.927Z,53.69
2018-08-12T12:02:48.291Z,52.79
2018-08-12T12:05:16.645Z,50.94
2018-08-12T12:07:44.903Z,51.30
2018-08-12T12:10:16.729Z,53.00
2018-08-12T12:12:46.135Z,52.37
2018-08-12T12:15:15.021Z,52.22
2018-08-12T12:17:44.120Z,53.73
2018-08-12T12:20:13.227Z,55.08
2018-08-12T12:22:42.382Z,55.81
2018-08-12T12:25:13.803Z,53.83
2018-08-12T12:27:42.121Z,55.19
2018-08-12T12:30:16.638Z,54.99
2018-08-12T12:32:45.578Z,56.53
2018-08-12T12:35:13.783Z,57.03
2018-08-12T12:37:44.687Z,56.77
2018-08-12T12:40:14.897Z,54.46
2018-08-12T12:42:43.659Z,56.81
2018-08-12T12:45:12.722Z,54.52
2018-08-12T12:47:41.463Z,55.94
2018-08-12T12:50:17.530Z,56.81
2018-08-12T12:52:46.600Z,55.09
2018-08-12T12:55:15.120Z,55.55
2018-08-12T12:57:44.506Z,56.03
2018-08-12T13:00:14.958Z,55.39
2018-08-12T13:02:43.330Z,55.40
2018-08-12T13:05:14.118Z,56.17
2018-08-12T13:07:43.680Z,55.37
2018-08-12T13:10:12.820Z,55.50
2018-08-12T13:12:42.309Z,52.82
2018-08-12T13:15:12.780Z,54.67
2018-08-12T13:17:41.668Z,53.17
2018-08-12T13:20:15.847Z,52.44
2018-08-12T13:22:45.339Z,50.84
2018-08-12T13:25:15.787Z,50.92
2018-08-12T13:27:44.472Z,51.91
2018-08-12T13:30:14.847Z,52.66
2018-08-12T13:32:44.117Z,51.04
2018-08-12T13:35:12.384Z,47.14
2018-08-12T13:37:41.061Z,43.75
2018-08-12T13:40:11.837Z,45.54
2018-08-12T13:42:40.861Z,44.53
2018-08-12T13:45:10.241Z,47.11
2018-08-12T13:47:39.053Z,46.82
2018-08-12T13:50:11.061Z,45.78
2018-08-12T13:52:39.393Z,45.98
2018-08-12T13:55:07.661Z,46.23
2018-08-12T13:57:36.095Z,47.41
2018-08-12T14:00:09.711Z,48.02
2018-08-12T14:02:38.701Z,49.20
2018-08-12T14:05:06.899Z,49.26
2018-08-12T14:07:35.827Z,48.21
2018-08-12T14:10:05.443Z,45.59
2018-08-12T14:12:33.715Z,43.84
2018-08-12T14:15:01.890Z,42.55
2018-08-12T14:17:30.659Z,39.44
2018-08-12T14:19:58.806Z,38.23
2018-08-12T14:22:27.008Z,37.58
2018-08-12T14:24:55.255Z,35.59
2018-08-12T14:27:23.505Z,35.08
2018-08-12T14:29:51.817Z,34.86
2018-08-12T14:32:20.082Z,34.68
2018-08-12T14:34:48.395Z,34.31
2018-08-12T14:37:16.812Z,33.86
2018-08-12T14:39:45.006Z,33.04
2018-08-12T14:42:13.632Z,32.87
2018-08-12T14:44:41.886Z,32.75
2018-08-12T14:47:10.053Z,32.62
2018-08-12T14:49:38.361Z,32.56
2018-08-12T14:52:06.614Z,32.58
2018-08-12T14:54:34.833Z,32.55
2018-08-12T14:57:04.100Z,32.43
2018-08-12T14:59:33.218Z,32.46
2018-08-12T15:02:01.338Z,32.51
2018-08-12T15:04:31.757Z,32.40
2018-08-12T15:07:05.828Z,32.12
2018-08-12T15:09:43.484Z,32.26
2018-08-12T15:12:11.743Z,32.28
2018-08-12T15:14:43.356Z,32.09
2018-08-12T15:17:16.346Z,32.37
2018-08-12T15:19:47.089Z,32.48
2018-08-12T15:22:15.391Z,32.50
2018-08-12T15:24:50.519Z,32.57
2018-08-12T15:27:19.429Z,32.59
2018-08-12T15:29:47.707Z,32.62
2018-08-12T15:32:16.173Z,32.49
2018-08-12T15:34:48.537Z,32.58
2018-08-12T15:37:16.947Z,32.60
2018-08-12T15:39:45.414Z,32.13
2018-08-12T15:42:17.799Z,31.93
2018-08-12T15:44:47.404Z,31.89
2018-08-12T15:47:18.991Z,32.01
2018-08-12T15:49:50.407Z,31.84
2018-08-12T15:52:18.854Z,31.69
2018-08-12T15:54:48.124Z,31.70
2018-08-12T15:57:16.438Z,31.64
2018-08-12T15:59:44.606Z,31.48
2018-08-12T16:02:12.853Z,31.61
2018-08-12T16:04:42.422Z,31.65
2018-08-12T16:07:11.440Z,31.46
2018-08-12T16:09:39.589Z,31.42
2018-08-12T16:12:09.556Z,31.29
2018-08-12T16:14:37.890Z,31.33
2018-08-12T16:20:09.609Z,31.11
2018-08-12T16:22:40.064Z,31.09
2018-08-12T16:25:15.159Z,30.98
2018-08-12T16:27:49.396Z,30.80
2018-08-12T16:30:27.540Z,30.69
2018-08-12T16:32:55.983Z,30.59
2018-08-12T16:35:24.513Z,30.60
2018-08-12T16:37:52.765Z,30.71
2018-08-12T16:40:22.851Z,30.67
2018-08-12T16:42:52.915Z,30.51
2018-08-12T16:45:26.613Z,30.47
2018-08-12T16:47:58.341Z,30.45
2018-08-12T16:50:28.235Z,30.38
2018-08-12T16:53:00.137Z,30.32
2018-08-12T16:55:28.617Z,30.31
2018-08-12T16:58:01.477Z,30.13
2018-08-12T17:00:36.068Z,30.06
2018-08-12T17:03:05.813Z,29.97
2018-08-12T17:05:37.462Z,29.89
2018-08-12T17:08:06.753Z,29.83
2018-08-12T17:10:38.634Z,29.69
2018-08-12T17:13:11.296Z,29.61
2018-08-12T17:15:44.227Z,29.66
2018-08-12T17:18:13.134Z,29.52
2018-08-12T17:20:41.419Z,29.36
2018-08-12T17:23:11.814Z,29.20
2018-08-12T17:25:40.907Z,29.13
2018-08-12T17:28:15.520Z,29.10
2018-08-12T17:30:44.580Z,28.94
2018-08-12T17:33:12.888Z,28.87
2018-08-12T17:35:41.240Z,28.83
2018-08-12T17:38:09.696Z,28.81
2018-08-12T17:40:39.034Z,28.79
2018-08-12T17:43:15.513Z,28.76
2018-08-12T17:45:44.962Z,28.72
2018-08-12T17:48:18.574Z,28.67
2018-08-12T17:50:53.538Z,28.53
2018-08-12T18:06:53.749Z,27.97
2018-08-12T18:09:22.253Z,27.90
2018-08-12T18:11:51.615Z,27.72
2018-08-12T18:14:22.801Z,27.64
2018-08-12T18:16:51.335Z,27.52
2018-08-12T18:19:20.797Z,27.33
2018-08-12T18:21:50.521Z,27.22
2018-08-12T18:24:20.789Z,27.11
2018-08-12T18:26:50.673Z,27.09
2018-08-12T18:29:18.946Z,27.02
2018-08-12T18:31:48.435Z,26.89
2018-08-12T18:34:17.831Z,26.73
2018-08-12T18:36:47.149Z,26.59
2018-08-12T18:39:15.910Z,26.39
2018-08-12T18:41:45.179Z,26.25
2018-08-12T18:44:14.414Z,26.18
2018-08-12T18:46:43.354Z,26.16
2018-08-12T18:49:11.636Z,26.12
2018-08-12T18:51:40.497Z,25.99
2018-08-12T18:54:08.768Z,25.86
2018-08-12T18:56:37.067Z,25.85
2018-08-12T18:59:05.393Z,25.77
2018-08-12T19:01:33.713Z,25.71
2018-08-12T19:04:03.028Z,25.60
2018-08-12T19:06:31.363Z,25.55
2018-08-12T19:08:59.649Z,25.42
2018-08-12T19:11:28.537Z,25.39
2018-08-12T19:13:56.775Z,25.30
2018-08-12T19:16:25.252Z,25.25
2018-08-12T19:18:53.618Z,25.18
2018-08-12T19:21:22.033Z,25.07
2018-08-12T19:23:50.350Z,25.03
2018-08-12T19:26:18.625Z,24.93
2018-08-12T19:28:47.002Z,24.92
2018-08-12T19:31:15.319Z,24.86
2018-08-12T19:33:43.773Z,24.83
2018-08-12T19:36:13.286Z,24.90
2018-08-12T19:38:42.784Z,24.80
2018-08-12T19:41:13.789Z,24.70
2018-08-12T19:43:42.191Z,24.65
2018-08-12T19:46:15.764Z,24.62
2018-08-12T19:48:51.526Z,24.59
2018-08-12T19:51:26.242Z,24.53
2018-08-12T19:54:09.981Z,24.46
2018-08-12T19:56:46.235Z,24.43
2018-08-12T20:06:12.433Z,24.06
2018-08-12T20:08:41.607Z,23.99
2018-08-12T20:11:11.681Z,23.90
2018-08-12T20:13:40.579Z,23.88
2018-08-12T20:16:09.329Z,23.75
2018-08-12T20:18:38.645Z,23.73
2018-08-12T20:21:06.990Z,23.67
2018-08-12T20:23:35.588Z,23.60
2018-08-12T20:26:05.472Z,23.58
2018-08-12T20:28:34.295Z,23.57
2018-08-12T20:31:03.246Z,23.46
2018-08-12T20:33:33.505Z,23.40
2018-08-12T20:36:04.105Z,23.38
2018-08-12T20:38:34.515Z,23.29
2018-08-12T20:41:04.613Z,23.31
2018-08-12T20:43:32.873Z,23.34
2018-08-12T20:46:01.107Z,23.28
2018-08-12T20:48:29.393Z,23.25
2018-08-12T20:50:57.705Z,23.26
2018-08-12T20:53:26.575Z,23.24
2018-08-12T20:55:58.028Z,23.29
2018-08-12T20:58:26.336Z,23.32
2018-08-12T21:00:54.572Z,23.28
2018-08-12T21:03:22.850Z,23.21
2018-08-12T21:05:52.680Z,23.21
2018-08-12T21:08:20.968Z,23.12
2018-08-12T21:10:50.228Z,23.04
2018-08-12T21:13:18.508Z,23.01
2018-08-12T21:15:46.834Z,23.01
2018-08-12T21:18:15.064Z,23.05
2018-08-12T21:20:43.449Z,23.00
2018-08-12T21:23:12.358Z,23.05
2018-08-12T21:25:41.407Z,22.98
2018-08-12T21:28:09.669Z,22.87
2018-08-12T21:30:38.784Z,22.80
2018-08-12T21:33:06.972Z,22.72
2018-08-12T21:35:35.572Z,22.72
2018-08-12T21:38:04.089Z,22.66
2018-08-12T21:40:32.499Z,22.62
2018-08-12T21:43:00.782Z,22.60
2018-08-12T21:45:29.157Z,22.53
2018-08-12T21:47:57.383Z,22.53
2018-08-12T21:50:26.521Z,22.46
2018-08-12T21:52:55.203Z,22.42
2018-08-12T21:55:23.741Z,22.40
2018-08-12T21:57:52.995Z,22.34
2018-08-12T22:00:21.537Z,22.33
2018-08-12T22:02:50.531Z,22.33
2018-08-12T22:05:22.086Z,22.29
2018-08-12T22:07:50.271Z,22.30
2018-08-12T22:10:18.692Z,22.28
2018-08-12T22:12:47.307Z,22.26
2018-08-12T22:15:15.810Z,22.24
2018-08-12T22:17:44.185Z,22.26
2018-08-12T22:20:12.733Z,22.21
2018-08-12T22:22:41.097Z,22.16
2018-08-12T22:25:09.349Z,22.11
2018-08-12T22:27:38.815Z,22.10
2018-08-12T22:30:11.594Z,22.07
2018-08-12T22:32:40.279Z,21.97
2018-08-12T22:35:08.569Z,21.89
2018-08-12T22:37:37.029Z,21.91
2018-08-12T22:40:07.353Z,21.80
2018-08-12T22:42:35.920Z,21.72
2018-08-12T22:45:07.216Z,21.68
2018-08-12T22:47:35.527Z,21.69
2018-08-12T22:50:04.692Z,21.65
2018-08-12T22:52:33.187Z,21.63
2018-08-12T22:55:02.352Z,21.63
2018-08-12T22:57:31.209Z,21.62
2018-08-12T22:59:59.386Z,21.57
2018-08-12T23:02:27.871Z,21.51
2018-08-12T23:04:56.900Z,21.53
2018-08-12T23:07:25.218Z,21.55
2018-08-12T23:09:54.675Z,21.60
2018-08-12T23:12:23.256Z,21.60
2018-08-12T23:14:51.474Z,21.50
2018-08-12T23:17:19.950Z,21.41
2018-08-12T23:19:48.832Z,21.38
2018-08-12T23:22:17.719Z,21.33
2018-08-12T23:24:45.993Z,21.37
2018-08-12T23:27:14.272Z,21.35
2018-08-12T23:29:42.489Z,21.29
2018-08-12T23:32:10.722Z,21.33
2018-08-12T23:34:38.970Z,21.23
2018-08-12T23:37:07.890Z,21.13
2018-08-12T23:39:36.265Z,21.15
2018-08-12T23:42:04.517Z,21.10
2018-08-12T23:44:32.660Z,21.06
2018-08-12T23:47:01.353Z,21.15
2018-08-12T23:49:29.580Z,21.07
2018-08-12T23:51:57.870Z,21.03
2018-08-12T23:54:26.502Z,21.07
2018-08-12T23:56:55.158Z,21.10
2018-08-12T23:59:23.611Z,21.03
